Terminal Aerodrome Forecast
Issued by NWS Omaha/Valley, NE

Home | Current Version | Previous Version | Graphics & Text | Print | Product List | Glossary On
Versions: 1 2 3 4 5 6 7 8 9 10 11 12 13 14 15 16 17 18 19 20 21
000
FTUS43 KOAX 201603 AAA
TAFOFK
TAF AMD
KOFK 201603Z 2016/2112 03014KT P6SM SCT250
     FM210000 03010KT P6SM SCT250
     FM210500 03007KT P6SM BKN150=

USA.gov is the U.S. government's official web portal to all federal, state and local government web resources and services.